Webcam Flughafen St.Gallen-Altenrhein

Live-Bilder und Zeitraffer LSZR / ACH.

 

Live aus Altenrhein
LIVE
LSZR 040050Z AUTO VRB01KT CAVOK 02/M00 Q1021
Zeitraffer heute
2020-04-04 00:14:46
LSZR 032150Z AUTO 31003KT 9999 OVC070 06/02 Q1020